Time;durP1;ratioP1;P1;durP2;ratioP2;P2;SDS_P1;SDS_P2;PMS_P1;PMS_P2;Temp;Humidity;BMP_temperature;BMP_pressure;BME280_temperature;BME280_humidity;BME280_pressure;Samples;Min_cycle;Max_cycle;Signal;HPM_P1;HPM_P2
2023/12/15 00:01:00;;;;;;;9.67;5.53;;;;;;;;;;5052010;28;20739;-83
2023/12/15 00:03:27;;;;;;;7.77;5.13;;;;;;;;;;5052630;28;20209;-83
2023/12/15 00:05:55;;;;;;;8.83;5.97;;;;;;;;;;5052064;28;20256;-83
2023/12/15 00:08:22;;;;;;;10.87;6.17;;;;;;;;;;5052587;28;20265;-83
2023/12/15 00:10:51;;;;;;;9.47;5.83;;;;;;;;;;5052374;28;20240;-83
2023/12/15 00:13:18;;;;;;;8.83;5.77;;;;;;;;;;5052909;28;20279;-83
2023/12/15 00:15:45;;;;;;;16.00;7.77;;;;;;;;;;5052190;28;20299;-83
2023/12/15 00:18:12;;;;;;;9.50;6.23;;;;;;;;;;5052591;28;20229;-83
2023/12/15 00:20:39;;;;;;;10.73;6.60;;;;;;;;;;5051933;28;20240;-83
2023/12/15 00:23:06;;;;;;;9.30;6.27;;;;;;;;;;5052101;28;20248;-83
2023/12/15 00:25:33;;;;;;;10.27;6.13;;;;;;;;;;5051726;28;20645;-83
2023/12/15 00:28:01;;;;;;;12.10;7.13;;;;;;;;;;5051877;28;20750;-83
2023/12/15 00:30:28;;;;;;;10.63;6.23;;;;;;;;;;5051736;28;20284;-84
2023/12/15 00:32:55;;;;;;;10.87;6.73;;;;;;;;;;5052219;28;20263;-83
2023/12/15 00:35:22;;;;;;;8.27;5.53;;;;;;;;;;5051233;28;20287;-83
2023/12/15 00:37:49;;;;;;;8.63;5.80;;;;;;;;;;5051901;28;20226;-83
2023/12/15 00:40:16;;;;;;;11.77;6.73;;;;;;;;;;5051642;28;20255;-84
2023/12/15 00:42:44;;;;;;;12.10;6.57;;;;;;;;;;5051955;28;20210;-83
2023/12/15 00:45:12;;;;;;;12.07;7.07;;;;;;;;;;5051585;28;20206;-83
2023/12/15 00:47:40;;;;;;;12.33;6.63;;;;;;;;;;5051405;28;20628;-83
2023/12/15 00:50:07;;;;;;;10.13;6.47;;;;;;;;;;5051374;28;20623;-84
2023/12/15 00:52:34;;;;;;;11.97;7.40;;;;;;;;;;5051723;28;20241;-83
2023/12/15 00:55:01;;;;;;;11.97;7.00;;;;;;;;;;5051947;28;20215;-83
2023/12/15 00:57:28;;;;;;;14.70;7.77;;;;;;;;;;5051360;28;20237;-83
2023/12/15 00:59:56;;;;;;;11.57;7.17;;;;;;;;;;5051631;28;20237;-83
2023/12/15 01:02:25;;;;;;;10.90;6.33;;;;;;;;;;5051005;28;20688;-83
2023/12/15 01:04:52;;;;;;;9.77;6.33;;;;;;;;;;5051615;28;20271;-83
2023/12/15 01:07:19;;;;;;;10.53;7.13;;;;;;;;;;5051691;28;20700;-83
2023/12/15 01:09:46;;;;;;;9.93;6.30;;;;;;;;;;5052290;28;20202;-83
2023/12/15 01:12:13;;;;;;;7.73;6.13;;;;;;;;;;5049937;28;20233;-83
2023/12/15 01:14:40;;;;;;;11.27;6.40;;;;;;;;;;5051662;28;20210;-83
2023/12/15 01:17:07;;;;;;;9.97;6.57;;;;;;;;;;5051311;28;20657;-83
2023/12/15 01:19:35;;;;;;;9.47;6.50;;;;;;;;;;5051843;28;20215;-83
2023/12/15 01:22:02;;;;;;;12.10;6.63;;;;;;;;;;5051264;28;20237;-83
2023/12/15 01:24:29;;;;;;;10.70;7.03;;;;;;;;;;5051730;28;20206;-84
2023/12/15 01:26:56;;;;;;;15.53;7.00;;;;;;;;;;5050916;28;20242;-84
2023/12/15 01:29:23;;;;;;;13.10;6.50;;;;;;;;;;5051649;28;20198;-83
2023/12/15 01:31:50;;;;;;;11.17;7.07;;;;;;;;;;5050918;28;20229;-84
2023/12/15 01:34:17;;;;;;;9.37;6.30;;;;;;;;;;5051571;28;20282;-84
2023/12/15 01:36:46;;;;;;;12.10;6.13;;;;;;;;;;5050823;28;20299;-84
2023/12/15 01:39:13;;;;;;;10.67;6.27;;;;;;;;;;5051541;28;20237;-84
2023/12/15 01:41:40;;;;;;;11.20;7.20;;;;;;;;;;5050830;28;20354;-84
2023/12/15 01:44:07;;;;;;;14.30;7.70;;;;;;;;;;5051166;28;20198;-84
2023/12/15 01:46:34;;;;;;;15.23;7.93;;;;;;;;;;5053086;28;20241;-84
2023/12/15 01:49:01;;;;;;;10.70;6.90;;;;;;;;;;5055199;28;20741;-83
2023/12/15 01:51:28;;;;;;;12.40;6.20;;;;;;;;;;5054516;28;20244;-83
2023/12/15 01:53:56;;;;;;;14.23;7.57;;;;;;;;;;5054896;28;20221;-83
2023/12/15 01:56:23;;;;;;;12.50;7.53;;;;;;;;;;5054669;28;20238;-83
2023/12/15 01:58:50;;;;;;;11.37;6.93;;;;;;;;;;5055037;28;20283;-84
2023/12/15 02:01:17;;;;;;;12.60;7.47;;;;;;;;;;5054077;28;20237;-83
2023/12/15 02:03:44;;;;;;;10.80;7.13;;;;;;;;;;5054455;28;20214;-83
2023/12/15 02:06:11;;;;;;;12.53;7.37;;;;;;;;;;5054134;28;20241;-84
2023/12/15 02:08:38;;;;;;;12.53;7.03;;;;;;;;;;5053852;28;20287;-83
2023/12/15 02:11:07;;;;;;;13.30;7.50;;;;;;;;;;5073464;28;20236;-83
2023/12/15 02:13:34;;;;;;;12.00;7.43;;;;;;;;;;5074620;28;20229;-83
2023/12/15 02:16:01;;;;;;;11.90;6.87;;;;;;;;;;5074049;28;20233;-83
2023/12/15 02:18:28;;;;;;;15.17;8.23;;;;;;;;;;5050959;28;20225;-84
2023/12/15 02:20:55;;;;;;;16.40;7.87;;;;;;;;;;5053898;28;20237;-83
2023/12/15 02:23:23;;;;;;;15.90;7.77;;;;;;;;;;5054752;28;20212;-83
2023/12/15 02:25:50;;;;;;;11.73;7.20;;;;;;;;;;5054146;28;20241;-84
2023/12/15 02:28:17;;;;;;;12.17;7.10;;;;;;;;;;5054335;28;20225;-84
2023/12/15 02:30:44;;;;;;;18.63;8.20;;;;;;;;;;5053980;28;20245;-84
2023/12/15 02:33:12;;;;;;;15.37;6.97;;;;;;;;;;5054115;28;20711;-84
2023/12/15 02:35:40;;;;;;;10.27;6.63;;;;;;;;;;5053948;28;20319;-84
2023/12/15 02:38:07;;;;;;;13.07;7.30;;;;;;;;;;5054381;28;20568;-84
2023/12/15 02:40:36;;;;;;;12.70;7.03;;;;;;;;;;5053960;28;20256;-84
2023/12/15 02:43:03;;;;;;;13.17;7.23;;;;;;;;;;5054531;28;20239;-83
2023/12/15 02:45:30;;;;;;;14.43;8.03;;;;;;;;;;5053925;28;20260;-84
2023/12/15 02:47:57;;;;;;;16.60;7.93;;;;;;;;;;5054181;28;20222;-84
2023/12/15 02:50:24;;;;;;;10.50;6.60;;;;;;;;;;5053814;28;20264;-84
2023/12/15 02:52:51;;;;;;;13.67;7.73;;;;;;;;;;5054071;28;20288;-83
2023/12/15 02:55:18;;;;;;;17.03;7.23;;;;;;;;;;5053585;28;20221;-84
2023/12/15 02:57:46;;;;;;;13.17;8.17;;;;;;;;;;5053708;28;20228;-83
2023/12/15 03:00:15;;;;;;;11.93;7.20;;;;;;;;;;5053613;28;20208;-84
2023/12/15 03:02:42;;;;;;;14.20;7.67;;;;;;;;;;5053784;28;20240;-84
2023/12/15 03:05:09;;;;;;;15.23;7.57;;;;;;;;;;5053262;28;20242;-84
2023/12/15 03:07:36;;;;;;;12.13;7.30;;;;;;;;;;5053869;28;20233;-84
2023/12/15 03:10:03;;;;;;;10.27;7.13;;;;;;;;;;5053437;28;20238;-85
2023/12/15 03:12:32;;;;;;;15.50;7.87;;;;;;;;;;5053642;28;20281;-84
2023/12/15 03:15:00;;;;;;;12.43;7.97;;;;;;;;;;5053783;28;20217;-83
2023/12/15 03:17:30;;;;;;;12.47;7.13;;;;;;;;;;5053032;28;20248;-84
2023/12/15 03:19:57;;;;;;;15.57;8.67;;;;;;;;;;5053615;28;20205;-84
2023/12/15 03:22:24;;;;;;;11.70;7.33;;;;;;;;;;5052705;28;20236;-84
2023/12/15 03:24:51;;;;;;;11.47;7.63;;;;;;;;;;5053581;28;20607;-84
2023/12/15 03:27:18;;;;;;;12.37;7.77;;;;;;;;;;5052756;28;20247;-84
2023/12/15 03:29:45;;;;;;;11.57;7.70;;;;;;;;;;5053437;28;20263;-84
2023/12/15 03:32:13;;;;;;;13.97;8.43;;;;;;;;;;5052636;28;20290;-83
2023/12/15 03:34:40;;;;;;;13.00;7.40;;;;;;;;;;5053212;28;20228;-84
2023/12/15 03:37:08;;;;;;;12.30;6.70;;;;;;;;;;5052522;28;20232;-83
2023/12/15 03:39:35;;;;;;;11.70;7.97;;;;;;;;;;5053239;28;20661;-84
2023/12/15 03:42:06;;;;;;;12.07;7.00;;;;;;;;;;5052606;28;20242;-84
2023/12/15 03:44:33;;;;;;;13.37;8.07;;;;;;;;;;5053634;28;20202;-84
2023/12/15 03:47:00;;;;;;;13.77;7.67;;;;;;;;;;5052323;28;20241;-84
2023/12/15 03:49:28;;;;;;;13.67;7.03;;;;;;;;;;5053038;28;20206;-83
2023/12/15 03:51:55;;;;;;;12.60;7.17;;;;;;;;;;5052330;28;20983;-84
2023/12/15 03:54:22;;;;;;;12.53;6.90;;;;;;;;;;5052516;28;20229;-84
2023/12/15 03:56:55;;;;;;;17.80;7.50;;;;;;;;;;5052122;28;20715;-84
2023/12/15 03:59:22;;;;;;;14.17;8.33;;;;;;;;;;5053207;28;20281;-84
2023/12/15 04:01:49;;;;;;;11.83;7.50;;;;;;;;;;5051918;28;20694;-84
2023/12/15 04:04:16;;;;;;;13.53;7.87;;;;;;;;;;5052882;28;20324;-84
2023/12/15 04:06:45;;;;;;;15.77;8.63;;;;;;;;;;5052283;28;20356;-83
2023/12/15 04:09:12;;;;;;;10.60;7.03;;;;;;;;;;5052467;28;20263;-84
2023/12/15 04:11:39;;;;;;;13.10;6.80;;;;;;;;;;5052058;28;20248;-84
2023/12/15 04:14:06;;;;;;;10.60;7.13;;;;;;;;;;5052478;28;20226;-84
2023/12/15 04:16:33;;;;;;;12.43;7.07;;;;;;;;;;5051974;28;20258;-84
2023/12/15 04:19:00;;;;;;;11.77;6.60;;;;;;;;;;5052102;28;20206;-83
2023/12/15 04:21:27;;;;;;;13.80;8.23;;;;;;;;;;5051827;28;20247;-84
2023/12/15 04:23:55;;;;;;;10.97;6.60;;;;;;;;;;5052403;28;20253;-84
2023/12/15 04:26:22;;;;;;;10.23;7.00;;;;;;;;;;5051755;28;20271;-84
2023/12/15 04:28:49;;;;;;;12.93;7.10;;;;;;;;;;5052040;28;20227;-84
2023/12/15 04:31:17;;;;;;;14.80;7.93;;;;;;;;;;5051500;28;20271;-84
2023/12/15 04:33:44;;;;;;;12.27;7.17;;;;;;;;;;5052376;28;20233;-84
2023/12/15 04:36:11;;;;;;;12.23;7.77;;;;;;;;;;5051890;28;20650;-84
2023/12/15 04:38:38;;;;;;;12.57;6.97;;;;;;;;;;5052192;28;20236;-83
2023/12/15 04:41:07;;;;;;;11.53;7.50;;;;;;;;;;5051712;28;20233;-84
2023/12/15 04:43:34;;;;;;;18.63;8.23;;;;;;;;;;5052076;28;20268;-83
2023/12/15 04:46:01;;;;;;;12.77;7.37;;;;;;;;;;5051187;28;20738;-83
2023/12/15 04:48:28;;;;;;;15.27;8.33;;;;;;;;;;5052032;28;20263;-83
2023/12/15 04:50:55;;;;;;;15.53;8.03;;;;;;;;;;5052297;28;20236;-84
2023/12/15 04:53:22;;;;;;;10.67;7.10;;;;;;;;;;5050947;28;20206;-84
2023/12/15 04:55:49;;;;;;;16.57;8.60;;;;;;;;;;5051443;28;20241;-83
2023/12/15 04:58:17;;;;;;;14.13;7.70;;;;;;;;;;5051730;28;20226;-83
2023/12/15 05:00:45;;;;;;;12.90;7.90;;;;;;;;;;5031089;28;20241;-83
2023/12/15 05:03:12;;;;;;;12.07;7.43;;;;;;;;;;5031984;28;20261;-84
2023/12/15 05:05:39;;;;;;;18.10;8.33;;;;;;;;;;5048062;28;20250;-85
2023/12/15 05:08:06;;;;;;;15.53;7.90;;;;;;;;;;5051624;28;20230;-82
2023/12/15 05:10:33;;;;;;;14.27;7.17;;;;;;;;;;5050625;28;20287;-82
2023/12/15 05:13:00;;;;;;;14.23;7.63;;;;;;;;;;5051332;28;20636;-81
2023/12/15 05:15:28;;;;;;;12.33;7.27;;;;;;;;;;5050859;28;20322;-81
2023/12/15 05:17:55;;;;;;;12.97;7.60;;;;;;;;;;5051529;28;20226;-81
2023/12/15 05:20:22;;;;;;;12.97;7.90;;;;;;;;;;5051287;28;20244;-81
2023/12/15 05:22:50;;;;;;;10.70;7.20;;;;;;;;;;5055115;28;20210;-81
2023/12/15 05:25:17;;;;;;;14.93;8.37;;;;;;;;;;5054989;28;20655;-82
2023/12/15 05:27:44;;;;;;;13.63;7.70;;;;;;;;;;5055428;28;20226;-82
2023/12/15 05:30:12;;;;;;;13.27;7.73;;;;;;;;;;5055250;28;20210;-82
2023/12/15 05:32:41;;;;;;;15.53;8.23;;;;;;;;;;5054987;28;20832;-81
2023/12/15 05:35:08;;;;;;;14.27;8.20;;;;;;;;;;5054727;28;20229;-82
2023/12/15 05:37:35;;;;;;;13.10;8.07;;;;;;;;;;5055321;28;20236;-82
2023/12/15 05:40:02;;;;;;;18.03;8.23;;;;;;;;;;5054884;28;20205;-82
2023/12/15 05:42:29;;;;;;;13.40;7.60;;;;;;;;;;5054609;28;20263;-81
2023/12/15 05:44:56;;;;;;;15.03;7.53;;;;;;;;;;5055028;28;20209;-83
2023/12/15 05:47:23;;;;;;;11.20;7.27;;;;;;;;;;5054623;28;20238;-83
2023/12/15 05:49:53;;;;;;;15.60;8.40;;;;;;;;;;5055801;28;20216;-82
2023/12/15 05:52:20;;;;;;;17.10;8.47;;;;;;;;;;5054829;28;20237;-81
2023/12/15 05:54:47;;;;;;;16.47;8.30;;;;;;;;;;5055053;28;20225;-82
2023/12/15 05:57:14;;;;;;;13.17;7.77;;;;;;;;;;5054606;28;20241;-82
2023/12/15 05:59:41;;;;;;;17.47;9.20;;;;;;;;;;5055184;28;20233;-82
2023/12/15 06:02:09;;;;;;;12.87;8.23;;;;;;;;;;5056133;28;20574;-81
2023/12/15 06:04:36;;;;;;;14.37;7.57;;;;;;;;;;5055966;28;20684;-81
2023/12/15 06:07:05;;;;;;;11.87;7.50;;;;;;;;;;5055038;28;20284;-83
2023/12/15 06:09:32;;;;;;;14.13;8.50;;;;;;;;;;5055396;28;20205;-82
2023/12/15 06:11:59;;;;;;;13.57;8.50;;;;;;;;;;5054237;28;20619;-81
2023/12/15 06:14:26;;;;;;;12.23;7.80;;;;;;;;;;5053382;28;20221;-81
2023/12/15 06:16:54;;;;;;;12.57;7.93;;;;;;;;;;5052446;28;20240;-82
2023/12/15 06:19:21;;;;;;;17.07;9.57;;;;;;;;;;5053400;28;20204;-81
2023/12/15 06:21:48;;;;;;;13.83;7.93;;;;;;;;;;5052535;28;20325;-82
2023/12/15 06:24:16;;;;;;;14.60;9.13;;;;;;;;;;5053088;28;20202;-81
2023/12/15 06:26:43;;;;;;;10.87;6.93;;;;;;;;;;5052275;28;20233;-81
2023/12/15 06:29:10;;;;;;;14.27;6.90;;;;;;;;;;5054787;28;20213;-81
2023/12/15 06:31:37;;;;;;;10.97;7.30;;;;;;;;;;5052254;28;20234;-81
2023/12/15 06:34:04;;;;;;;10.10;6.80;;;;;;;;;;5048257;28;20650;-82
2023/12/15 06:36:31;;;;;;;12.03;7.63;;;;;;;;;;5051987;28;20649;-82
2023/12/15 06:38:58;;;;;;;14.83;7.10;;;;;;;;;;5053303;28;20202;-82
2023/12/15 06:41:27;;;;;;;10.53;6.53;;;;;;;;;;5054200;28;20228;-82
2023/12/15 06:43:55;;;;;;;9.13;5.90;;;;;;;;;;5054572;28;20243;-82
2023/12/15 06:46:22;;;;;;;10.87;6.33;;;;;;;;;;5054234;28;20292;-82
2023/12/15 06:48:49;;;;;;;8.40;6.27;;;;;;;;;;5063900;28;20236;-82
2023/12/15 06:51:16;;;;;;;10.87;6.97;;;;;;;;;;5051735;28;20295;-81
2023/12/15 06:53:43;;;;;;;15.77;8.73;;;;;;;;;;5051397;28;20202;-82
2023/12/15 06:56:10;;;;;;;14.00;7.17;;;;;;;;;;5051903;28;20665;-82
2023/12/15 06:58:39;;;;;;;9.67;7.37;;;;;;;;;;5052359;28;20241;-82
2023/12/15 07:01:06;;;;;;;12.33;7.60;;;;;;;;;;5051585;28;20233;-82
2023/12/15 07:03:33;;;;;;;10.60;6.97;;;;;;;;;;5052200;28;20267;-81
2023/12/15 07:06:00;;;;;;;12.37;6.87;;;;;;;;;;5052400;28;20234;-82
2023/12/15 07:08:27;;;;;;;9.63;6.07;;;;;;;;;;5052565;28;20225;-82
2023/12/15 07:10:54;;;;;;;10.80;6.73;;;;;;;;;;5051628;28;20299;-82
2023/12/15 07:13:21;;;;;;;11.13;6.83;;;;;;;;;;5010142;28;1206329;-82
2023/12/15 07:15:49;;;;;;;10.33;7.10;;;;;;;;;;5049665;28;20240;-82
2023/12/15 07:18:17;;;;;;;11.47;6.97;;;;;;;;;;5051117;28;20705;-82
2023/12/15 07:20:44;;;;;;;10.73;7.50;;;;;;;;;;5051668;28;20347;-82
2023/12/15 07:23:11;;;;;;;10.43;6.83;;;;;;;;;;5043995;28;20649;-82
2023/12/15 07:25:38;;;;;;;12.03;8.00;;;;;;;;;;5051700;28;20233;-82
2023/12/15 07:28:05;;;;;;;11.57;7.50;;;;;;;;;;5051365;28;20309;-82
2023/12/15 07:30:32;;;;;;;11.67;7.80;;;;;;;;;;5051725;28;20237;-82
2023/12/15 07:33:00;;;;;;;10.03;7.17;;;;;;;;;;5051918;28;20657;-82
2023/12/15 07:35:27;;;;;;;12.63;7.93;;;;;;;;;;5051198;28;20244;-83
2023/12/15 07:37:55;;;;;;;12.83;7.87;;;;;;;;;;5051519;28;20662;-82
2023/12/15 07:40:22;;;;;;;13.53;8.27;;;;;;;;;;5051085;28;20440;-82
2023/12/15 07:42:49;;;;;;;9.47;6.47;;;;;;;;;;5050225;28;20319;-81
2023/12/15 07:45:16;;;;;;;11.17;7.23;;;;;;;;;;5050187;28;20259;-81
2023/12/15 07:47:43;;;;;;;10.70;6.80;;;;;;;;;;5051452;28;20697;-81
2023/12/15 07:50:13;;;;;;;10.70;6.33;;;;;;;;;;5051374;28;20271;-82
2023/12/15 07:52:40;;;;;;;13.30;5.90;;;;;;;;;;5051934;28;20696;-81
2023/12/15 07:55:08;;;;;;;11.00;7.77;;;;;;;;;;5050951;28;20229;-82
2023/12/15 07:57:35;;;;;;;15.03;7.63;;;;;;;;;;5051801;28;20280;-82
2023/12/15 08:00:02;;;;;;;11.60;8.00;;;;;;;;;;5051659;28;20217;-82
2023/12/15 08:02:29;;;;;;;10.67;7.80;;;;;;;;;;5052125;28;20209;-81
2023/12/15 08:04:56;;;;;;;11.13;7.23;;;;;;;;;;5051499;28;20206;-81
2023/12/15 08:07:24;;;;;;;6.87;5.63;;;;;;;;;;5050804;28;20686;-81
2023/12/15 08:09:51;;;;;;;8.50;6.10;;;;;;;;;;5051345;28;20271;-82
2023/12/15 08:12:18;;;;;;;10.80;7.30;;;;;;;;;;5051279;28;20221;-82
2023/12/15 08:14:45;;;;;;;6.90;4.23;;;;;;;;;;5051667;28;20229;-81
2023/12/15 08:17:12;;;;;;;15.67;8.50;;;;;;;;;;5050748;28;20226;-82
2023/12/15 08:19:40;;;;;;;13.00;7.77;;;;;;;;;;5051965;28;20625;-82
2023/12/15 08:22:07;;;;;;;8.97;6.37;;;;;;;;;;5051069;28;20328;-81
2023/12/15 08:24:36;;;;;;;13.13;8.07;;;;;;;;;;5051725;28;20262;-81
2023/12/15 08:27:04;;;;;;;11.83;7.33;;;;;;;;;;5050631;28;20261;-83
2023/12/15 08:29:31;;;;;;;14.13;8.57;;;;;;;;;;5051463;28;20256;-82
2023/12/15 08:31:58;;;;;;;14.13;7.00;;;;;;;;;;5050577;28;20241;-82
2023/12/15 08:34:26;;;;;;;9.83;6.70;;;;;;;;;;5051361;28;20210;-82
2023/12/15 08:36:53;;;;;;;10.20;6.60;;;;;;;;;;5050511;28;20264;-82
2023/12/15 08:39:20;;;;;;;18.47;9.07;;;;;;;;;;5051623;28;20243;-82
2023/12/15 08:41:48;;;;;;;14.00;8.63;;;;;;;;;;5050836;28;20660;-82
2023/12/15 08:44:15;;;;;;;15.63;9.40;;;;;;;;;;5042804;28;20253;-82
2023/12/15 08:46:42;;;;;;;14.20;9.17;;;;;;;;;;5050247;28;20230;-82
2023/12/15 08:49:09;;;;;;;12.57;8.93;;;;;;;;;;5051001;28;20210;-82
2023/12/15 08:51:36;;;;;;;11.77;8.03;;;;;;;;;;5050727;28;20649;-82
2023/12/15 08:54:03;;;;;;;11.07;8.37;;;;;;;;;;5050881;28;20206;-82
2023/12/15 08:56:30;;;;;;;15.03;8.77;;;;;;;;;;5050157;28;20238;-83
2023/12/15 08:58:58;;;;;;;16.47;8.47;;;;;;;;;;5050599;28;20220;-82
2023/12/15 09:01:25;;;;;;;13.47;9.00;;;;;;;;;;5050272;28;20236;-82
2023/12/15 09:03:53;;;;;;;13.90;7.80;;;;;;;;;;5050718;28;20301;-82
2023/12/15 09:06:20;;;;;;;13.03;7.70;;;;;;;;;;5050284;28;20269;-82
2023/12/15 09:08:47;;;;;;;84.77;33.33;;;;;;;;;;5050716;28;20304;-81
2023/12/15 09:11:14;;;;;;;33.43;16.97;;;;;;;;;;5050294;28;20232;-82
2023/12/15 09:13:41;;;;;;;14.13;9.37;;;;;;;;;;5050638;28;20684;-81
2023/12/15 09:16:10;;;;;;;152.40;52.87;;;;;;;;;;5049955;28;20241;-81
2023/12/15 09:18:37;;;;;;;88.33;33.03;;;;;;;;;;5050768;28;20655;-81
2023/12/15 09:21:04;;;;;;;13.87;8.60;;;;;;;;;;5050303;28;20252;-81
2023/12/15 09:23:31;;;;;;;12.93;8.17;;;;;;;;;;5051115;28;20213;-81
2023/12/15 09:25:59;;;;;;;17.93;9.40;;;;;;;;;;5050100;28;20246;-81
2023/12/15 09:28:26;;;;;;;13.40;8.40;;;;;;;;;;5050940;28;20636;-81
2023/12/15 09:30:53;;;;;;;14.27;8.13;;;;;;;;;;5050134;28;20238;-82
2023/12/15 09:33:21;;;;;;;12.00;8.50;;;;;;;;;;5050758;28;20634;-82
2023/12/15 09:35:53;;;;;;;13.57;6.13;;;;;;;;;;5050180;28;20241;-82
2023/12/15 09:38:20;;;;;;;13.73;8.67;;;;;;;;;;5042890;28;20287;-82
2023/12/15 09:40:47;;;;;;;13.20;7.07;;;;;;;;;;5050694;28;20317;-82
2023/12/15 09:43:14;;;;;;;10.53;7.57;;;;;;;;;;5050393;28;20217;-81
2023/12/15 09:45:41;;;;;;;12.73;9.27;;;;;;;;;;5050154;28;20230;-82
2023/12/15 09:48:08;;;;;;;15.10;8.80;;;;;;;;;;5050356;28;20229;-83
2023/12/15 09:50:41;;;;;;;10.83;7.03;;;;;;;;;;5050432;28;20230;-81
2023/12/15 09:53:08;;;;;;;13.97;9.13;;;;;;;;;;5050662;28;20297;-81
2023/12/15 09:55:35;;;;;;;17.60;7.97;;;;;;;;;;5049790;28;20857;-81
2023/12/15 09:58:02;;;;;;;13.53;8.50;;;;;;;;;;5050555;28;20323;-81
2023/12/15 10:00:30;;;;;;;15.53;9.73;;;;;;;;;;5050202;28;20241;-81
2023/12/15 10:02:57;;;;;;;13.00;9.03;;;;;;;;;;5050527;28;20213;-81
2023/12/15 10:05:24;;;;;;;8.37;7.53;;;;;;;;;;5050517;28;20238;-82
2023/12/15 10:07:53;;;;;;;8.77;6.20;;;;;;;;;;5053331;28;20287;-81
2023/12/15 10:10:23;;;;;;;9.63;6.63;;;;;;;;;;5055082;28;20228;-81
2023/12/15 10:12:50;;;;;;;11.77;7.77;;;;;;;;;;5055121;28;20217;-81
2023/12/15 10:15:17;;;;;;;17.20;8.07;;;;;;;;;;5054139;28;20279;-81
2023/12/15 10:17:44;;;;;;;8.13;6.37;;;;;;;;;;5054130;28;20727;-81
2023/12/15 10:20:12;;;;;;;13.50;7.67;;;;;;;;;;5053474;28;20205;-81
2023/12/15 10:22:39;;;;;;;10.17;6.70;;;;;;;;;;5054786;28;20206;-78
2023/12/15 10:25:17;;;;;;;5.80;5.00;;;;;;;;;;5061367;28;20241;-81
2023/12/15 10:27:45;;;;;;;11.63;7.07;;;;;;;;;;5054143;28;20287;-80
2023/12/15 10:30:13;;;;;;;12.23;7.67;;;;;;;;;;5053541;28;20865;-81
2023/12/15 10:32:40;;;;;;;12.30;7.60;;;;;;;;;;5054320;28;20206;-80
2023/12/15 10:35:08;;;;;;;10.30;7.17;;;;;;;;;;5054076;28;20252;-81
2023/12/15 10:37:35;;;;;;;9.43;7.07;;;;;;;;;;5054674;28;20272;-80
2023/12/15 10:40:04;;;;;;;11.43;6.77;;;;;;;;;;5053583;28;20210;-82
2023/12/15 10:42:32;;;;;;;12.33;5.80;;;;;;;;;;5054107;28;20214;-81
2023/12/15 10:45:00;;;;;;;9.37;6.73;;;;;;;;;;5055546;28;20264;-80
2023/12/15 10:47:27;;;;;;;10.47;7.30;;;;;;;;;;5055223;28;20229;-79
2023/12/15 10:49:54;;;;;;;7.40;5.73;;;;;;;;;;5056107;28;20264;-78
2023/12/15 10:52:22;;;;;;;8.33;6.13;;;;;;;;;;5053086;28;20225;-81
2023/12/15 10:54:49;;;;;;;9.10;6.37;;;;;;;;;;5048564;28;21678;-80
2023/12/15 10:57:16;;;;;;;9.77;5.83;;;;;;;;;;5049891;28;20657;-81
2023/12/15 10:59:45;;;;;;;8.50;5.87;;;;;;;;;;5052964;28;20210;-81
2023/12/15 11:02:13;;;;;;;10.57;6.40;;;;;;;;;;5052307;28;20280;-81
2023/12/15 11:04:40;;;;;;;7.87;6.17;;;;;;;;;;5053244;28;20210;-81
2023/12/15 11:07:09;;;;;;;10.47;5.93;;;;;;;;;;5051451;28;20303;-81
2023/12/15 11:09:36;;;;;;;9.73;6.40;;;;;;;;;;5052748;28;20244;-81
2023/12/15 11:12:23;;;;;;;11.33;5.67;;;;;;;;;;5052004;28;20242;-81
2023/12/15 11:14:55;;;;;;;8.27;5.73;;;;;;;;;;5052913;28;20209;-81
2023/12/15 11:17:22;;;;;;;8.73;6.20;;;;;;;;;;5051253;28;20242;-82
2023/12/15 11:19:51;;;;;;;13.93;7.23;;;;;;;;;;5051730;28;20630;-81
2023/12/15 11:22:19;;;;;;;9.90;6.63;;;;;;;;;;5051609;28;20316;-81
2023/12/15 11:24:46;;;;;;;11.27;6.27;;;;;;;;;;5052620;28;20585;-80
2023/12/15 11:27:14;;;;;;;8.90;6.20;;;;;;;;;;5051221;28;20229;-81
2023/12/15 11:29:41;;;;;;;8.03;5.67;;;;;;;;;;5052738;28;20289;-80
2023/12/15 11:32:27;;;;;;;10.03;6.40;;;;;;;;;;5051550;28;20360;-80
2023/12/15 11:34:55;;;;;;;5.80;4.87;;;;;;;;;;5052076;28;20213;-80
2023/12/15 11:37:22;;;;;;;7.87;4.57;;;;;;;;;;5050709;28;20969;-80
2023/12/15 11:39:50;;;;;;;7.33;6.30;;;;;;;;;;5051839;28;20214;-80
2023/12/15 11:42:17;;;;;;;9.57;7.10;;;;;;;;;;5042816;28;20313;-80
2023/12/15 11:44:45;;;;;;;8.97;5.90;;;;;;;;;;5049033;28;20626;-80
2023/12/15 11:47:12;;;;;;;9.87;6.60;;;;;;;;;;5050646;28;20230;-81
2023/12/15 11:49:42;;;;;;;7.93;6.03;;;;;;;;;;5050561;28;20264;-80
2023/12/15 11:52:11;;;;;;;12.73;8.03;;;;;;;;;;5050975;28;20230;-81
2023/12/15 11:54:38;;;;;;;9.47;7.23;;;;;;;;;;5051338;28;20695;-82
2023/12/15 11:57:06;;;;;;;9.63;6.50;;;;;;;;;;5050307;28;20332;-81
2023/12/15 11:59:37;;;;;;;10.50;5.67;;;;;;;;;;5052015;28;20729;-81
2023/12/15 12:02:05;;;;;;;8.10;6.23;;;;;;;;;;5050422;28;20734;-81
2023/12/15 12:04:32;;;;;;;9.30;6.47;;;;;;;;;;5051633;28;20286;-81
2023/12/15 12:06:59;;;;;;;10.73;6.53;;;;;;;;;;5051077;28;20237;-81
2023/12/15 12:09:27;;;;;;;10.67;7.30;;;;;;;;;;5042972;28;20267;-81
2023/12/15 12:11:56;;;;;;;9.00;6.47;;;;;;;;;;5050775;28;20312;-81
2023/12/15 12:14:25;;;;;;;8.87;6.53;;;;;;;;;;5051609;28;20730;-82
2023/12/15 12:16:53;;;;;;;12.70;6.77;;;;;;;;;;5050972;28;20712;-82
2023/12/15 12:19:21;;;;;;;13.30;6.80;;;;;;;;;;5051666;28;20572;-82
2023/12/15 12:21:48;;;;;;;8.03;6.67;;;;;;;;;;5050939;28;20230;-82
2023/12/15 12:24:15;;;;;;;8.03;5.57;;;;;;;;;;5051494;28;20217;-82
2023/12/15 12:26:46;;;;;;;7.87;5.77;;;;;;;;;;5050952;28;20233;-82
2023/12/15 12:29:14;;;;;;;7.67;6.33;;;;;;;;;;5051195;28;20237;-81
2023/12/15 12:31:41;;;;;;;8.77;6.47;;;;;;;;;;5050885;28;20317;-82
2023/12/15 12:34:08;;;;;;;11.10;6.33;;;;;;;;;;5050978;28;20202;-82
2023/12/15 12:36:36;;;;;;;8.77;5.87;;;;;;;;;;5050428;28;20230;-81
2023/12/15 12:39:03;;;;;;;8.10;6.10;;;;;;;;;;5051182;28;20245;-81
2023/12/15 12:41:30;;;;;;;8.63;6.53;;;;;;;;;;5050438;28;20233;-81
2023/12/15 12:43:58;;;;;;;8.87;6.13;;;;;;;;;;5051387;28;20206;-81
2023/12/15 12:46:25;;;;;;;10.73;5.87;;;;;;;;;;5050035;28;20226;-80
2023/12/15 12:48:52;;;;;;;8.13;5.17;;;;;;;;;;5050930;28;20232;-80
2023/12/15 12:51:19;;;;;;;7.87;6.30;;;;;;;;;;5050315;28;20669;-80
2023/12/15 12:53:47;;;;;;;7.50;5.77;;;;;;;;;;5051256;28;20236;-81
2023/12/15 12:56:15;;;;;;;9.23;6.57;;;;;;;;;;5050266;28;20274;-81
2023/12/15 12:58:42;;;;;;;8.90;7.00;;;;;;;;;;5050631;28;20734;-81
2023/12/15 13:01:10;;;;;;;9.20;6.93;;;;;;;;;;5050109;28;20237;-81
2023/12/15 13:03:38;;;;;;;5.83;5.20;;;;;;;;;;5050994;28;20295;-81
2023/12/15 13:06:05;;;;;;;13.30;6.70;;;;;;;;;;5050254;28;20226;-80
2023/12/15 13:08:32;;;;;;;9.70;6.03;;;;;;;;;;5050737;28;20226;-81
2023/12/15 13:10:59;;;;;;;8.50;5.87;;;;;;;;;;5050227;28;20238;-80
2023/12/15 13:13:26;;;;;;;6.60;5.40;;;;;;;;;;5050664;28;20218;-80
2023/12/15 13:15:53;;;;;;;9.13;6.20;;;;;;;;;;5050332;28;20279;-80
2023/12/15 13:18:22;;;;;;;8.33;6.47;;;;;;;;;;5050382;28;20236;-81
2023/12/15 13:20:49;;;;;;;8.00;6.57;;;;;;;;;;5051774;28;20238;-81
2023/12/15 13:23:16;;;;;;;7.63;5.80;;;;;;;;;;5051865;28;20296;-81
2023/12/15 13:25:43;;;;;;;7.80;6.10;;;;;;;;;;5050702;28;20241;-81
2023/12/15 13:28:10;;;;;;;6.50;5.23;;;;;;;;;;5050401;28;20275;-82
2023/12/15 13:30:37;;;;;;;9.33;6.13;;;;;;;;;;5050270;28;20225;-80
2023/12/15 13:33:04;;;;;;;8.43;6.63;;;;;;;;;;5049457;28;20609;-81
2023/12/15 13:35:33;;;;;;;10.20;6.03;;;;;;;;;;5049504;28;20283;-82
2023/12/15 13:38:00;;;;;;;9.13;6.33;;;;;;;;;;5050243;28;20762;-81
2023/12/15 13:40:27;;;;;;;7.77;5.70;;;;;;;;;;5049841;28;20240;-82
2023/12/15 13:42:54;;;;;;;10.37;6.23;;;;;;;;;;5053216;28;20198;-80
2023/12/15 13:45:22;;;;;;;8.30;6.03;;;;;;;;;;5053787;28;20617;-81
2023/12/15 13:47:49;;;;;;;10.83;6.13;;;;;;;;;;5047765;28;20222;-82
2023/12/15 13:50:17;;;;;;;9.00;6.30;;;;;;;;;;5053864;28;20206;-81
2023/12/15 13:52:45;;;;;;;7.40;6.47;;;;;;;;;;5054235;28;20202;-82
2023/12/15 13:55:12;;;;;;;7.10;6.13;;;;;;;;;;5054056;28;20236;-83
2023/12/15 13:57:39;;;;;;;9.43;6.53;;;;;;;;;;5053913;28;20234;-83
2023/12/15 14:00:08;;;;;;;9.87;7.10;;;;;;;;;;5053618;28;20255;-82
2023/12/15 14:02:36;;;;;;;8.77;6.80;;;;;;;;;;5053785;28;20297;-80
2023/12/15 14:05:04;;;;;;;9.47;6.63;;;;;;;;;;5053639;28;20209;-82
2023/12/15 14:07:31;;;;;;;8.77;6.77;;;;;;;;;;5046856;28;20499;-81
2023/12/15 14:09:59;;;;;;;10.47;6.80;;;;;;;;;;5055241;28;20677;-81
2023/12/15 14:12:27;;;;;;;9.73;6.73;;;;;;;;;;5052263;28;20233;-81
2023/12/15 14:14:54;;;;;;;9.40;6.87;;;;;;;;;;5053963;28;20296;-81
2023/12/15 14:17:21;;;;;;;8.57;6.67;;;;;;;;;;5052529;28;20245;-81
2023/12/15 14:19:50;;;;;;;9.80;6.50;;;;;;;;;;5053537;28;20210;-81
2023/12/15 14:22:18;;;;;;;8.63;6.50;;;;;;;;;;5052667;28;20226;-81
2023/12/15 14:24:46;;;;;;;8.50;6.40;;;;;;;;;;5053513;28;20206;-81
2023/12/15 14:27:15;;;;;;;16.17;8.23;;;;;;;;;;5052595;28;20226;-80
2023/12/15 14:29:42;;;;;;;8.87;6.43;;;;;;;;;;5053217;28;20214;-81
2023/12/15 14:32:09;;;;;;;12.03;6.70;;;;;;;;;;5052660;28;20230;-81
2023/12/15 14:34:36;;;;;;;9.10;7.00;;;;;;;;;;5053825;28;20267;-81